Terminal Aerodrome Forecast
Issued by NWS

Home | Current Version | Previous Version | Text Only | Print | Product List | Glossary On
Versions: 1 2 3 4 5 6 7 8 9 10 11 12 13 14 15
000
FTUS43 KMQT 261723
TAFSAW
TAF
KSAW 261723Z 2618/2718 02010G20KT P6SM SCT030
     FM270000 36009KT P6SM FEW030
     FM270400 35008KT P6SM BKN015
     FM270900 36007KT P6SM OVC007
     FM271600 36010G20KT P6SM BKN015=

USA.gov is the U.S. government's official web portal to all federal, state and local government web resources and services.